East Masonville, New York
Current Conditions -  °F | °C
As of 8:14 AM on Thursday 23 Oct 2014 (Local Time) from KBGM Reporting Station
Overcast Overcast  
Wind Chill: 34°   Ceiling: 900
Heat Index: 42°   Visibility: 10mi
Dew Point: 38°   Wind: 16mph
Humidity: 85%   Direction: 340°NNW
Pressure: 29.9"   Gusts: 24mph
Location:  42.2309°N, 75.2943°W
Report Text: KBGM 231214Z 34014G21KT 10SM OVC009 06/03 A2990 RMK AO2 T00560033
Loading
Personal Weather Stations






























Interactive Weather Map
Tropical Storm Tracking
New forecast layout! Learn more

10-Day Weather Forecast

Advertisements
Track Severe Weather on mobile